Time;durP1;ratioP1;P1;durP2;ratioP2;P2;SDS_P1;SDS_P2;PMS_P1;PMS_P2;Temp;Humidity;BMP_temperature;BMP_pressure;BME280_temperature;BME280_humidity;BME280_pressure;Samples;Min_cycle;Max_cycle;Signal;HPM_P1;HPM_P2
2023/03/27 00:01:14;;;;;;;7.55;3.63;;;;;;;6.54;60.57;99470.97;5050303;28;20041;-83
2023/03/27 00:03:41;;;;;;;13.43;2.47;;;;;;;6.50;60.15;99475.22;5050992;28;20031;-82
2023/03/27 00:06:10;;;;;;;7.68;2.28;;;;;;;6.28;60.59;99489.47;5052297;28;20041;-83
2023/03/27 00:08:36;;;;;;;8.68;2.42;;;;;;;6.37;61.56;99498.00;5049648;28;20035;-83
2023/03/27 00:11:03;;;;;;;7.78;1.65;;;;;;;6.25;61.69;99502.66;5054856;28;20025;-82
2023/03/27 00:13:29;;;;;;;8.75;1.95;;;;;;;6.40;61.20;99505.66;5055352;28;20064;-83
2023/03/27 00:15:55;;;;;;;9.48;2.15;;;;;;;6.50;60.96;99512.31;5054590;28;20060;-84
2023/03/27 00:18:22;;;;;;;8.27;1.70;;;;;;;6.34;61.99;99512.03;5054613;28;20746;-83
2023/03/27 00:20:48;;;;;;;7.68;1.52;;;;;;;6.44;61.48;99518.69;5063905;28;20025;-83
2023/03/27 00:23:13;;;;;;;5.72;1.60;;;;;;;6.44;62.07;99524.13;5057316;28;20035;-82
2023/03/27 00:25:39;;;;;;;11.95;2.50;;;;;;;6.38;62.33;99518.63;5040326;28;20033;-83
2023/03/27 00:28:05;;;;;;;6.78;1.77;;;;;;;6.25;62.72;99527.03;5056728;28;20170;-82
2023/03/27 00:30:31;;;;;;;7.85;1.50;;;;;;;6.24;62.04;99526.22;5056627;28;20028;-83
2023/03/27 00:32:57;;;;;;;7.60;1.70;;;;;;;6.13;63.18;99529.78;5055299;28;20101;-83
2023/03/27 00:35:24;;;;;;;10.77;1.92;;;;;;;6.19;63.40;99532.34;5055790;28;20115;-82
2023/03/27 00:37:50;;;;;;;16.50;2.40;;;;;;;6.34;62.55;99539.13;5056543;28;20032;-82
2023/03/27 00:40:19;;;;;;;5.97;1.40;;;;;;;6.23;62.88;99545.41;5057231;28;20032;-82
2023/03/27 00:42:49;;;;;;;15.43;2.40;;;;;;;6.20;62.70;99552.13;5056189;28;20397;-82
2023/03/27 00:45:16;;;;;;;8.10;2.33;;;;;;;6.32;62.42;99549.38;5055424;28;20079;-82
2023/03/27 00:47:43;;;;;;;16.23;1.95;;;;;;;6.19;62.19;99547.75;5056546;28;20603;-82
2023/03/27 00:50:12;;;;;;;9.82;1.52;;;;;;;6.14;62.85;99553.09;5056350;28;20377;-82
2023/03/27 00:52:41;;;;;;;9.48;2.40;;;;;;;6.17;62.84;99549.88;5056697;28;20567;-82
2023/03/27 00:55:13;;;;;;;12.45;2.00;;;;;;;6.27;62.54;99557.38;5055499;28;20032;-82
2023/03/27 00:57:41;;;;;;;6.90;1.80;;;;;;;6.03;63.18;99563.69;5053431;28;20128;-82
2023/03/27 01:00:12;;;;;;;20.70;4.53;;;;;;;6.04;63.32;99559.09;5054189;28;20028;-82
2023/03/27 01:02:39;;;;;;;8.48;2.30;;;;;;;6.03;63.59;99563.69;5054723;28;20031;-82
2023/03/27 01:05:06;;;;;;;12.63;2.53;;;;;;;5.87;63.62;99562.53;5056036;28;20051;-82
2023/03/27 01:07:31;;;;;;;19.35;3.22;;;;;;;6.06;63.26;99565.13;5056112;28;20033;-82
2023/03/27 01:09:57;;;;;;;9.50;2.60;;;;;;;6.16;63.13;99557.19;5038659;28;20044;-82
2023/03/27 01:12:49;;;;;;;15.68;4.10;;;;;;;6.01;63.07;99564.97;5056000;28;20651;-82
2023/03/27 01:15:31;;;;;;;11.68;2.72;;;;;;;5.95;63.39;99567.59;5038542;28;20033;-82
2023/03/27 01:18:17;;;;;;;9.32;3.00;;;;;;;5.86;63.52;99569.00;5055876;28;20025;-82
2023/03/27 01:21:04;;;;;;;21.08;4.43;;;;;;;6.00;62.88;99585.78;5055311;28;20041;-82
2023/03/27 01:23:48;;;;;;;6.15;1.40;;;;;;;6.13;62.81;99584.75;5054798;28;20033;-82
2023/03/27 01:26:32;;;;;;;6.20;1.73;;;;;;;6.06;62.73;99600.31;5055593;28;20028;-82
2023/03/27 01:29:07;;;;;;;6.50;1.70;;;;;;;5.99;63.49;99600.41;5054901;28;20124;-82
2023/03/27 01:32:05;;;;;;;12.73;2.00;;;;;;;5.85;63.56;99599.84;5056776;28;20041;-82
2023/03/27 01:34:56;;;;;;;11.25;2.35;;;;;;;5.94;63.33;99603.81;5054867;28;20039;-82
2023/03/27 01:38:09;;;;;;;11.93;2.42;;;;;;;5.92;63.55;99610.53;5053360;28;20832;-81
2023/03/27 01:40:42;;;;;;;9.85;2.45;;;;;;;5.92;63.74;99613.25;5052780;28;20025;-81
2023/03/27 01:43:16;;;;;;;6.90;1.77;;;;;;;5.89;63.39;99622.66;5053753;28;20031;-81
2023/03/27 01:45:49;;;;;;;12.13;2.03;;;;;;;5.99;63.58;99621.22;5053530;28;20043;-82
2023/03/27 01:48:38;;;;;;;12.23;2.58;;;;;;;5.93;63.29;99629.25;5055429;28;20041;-81
2023/03/27 01:51:29;;;;;;;7.82;1.95;;;;;;;5.95;63.22;99627.13;5055398;28;20119;-81
2023/03/27 01:54:01;;;;;;;7.38;2.97;;;;;;;5.95;63.39;99637.94;5053338;28;20040;-81
2023/03/27 01:56:38;;;;;;;6.70;2.42;;;;;;;5.83;63.19;99646.06;5054167;28;20033;-81
2023/03/27 01:59:12;;;;;;;6.05;2.42;;;;;;;5.46;64.14;99652.53;5055341;28;20115;-81
2023/03/27 02:01:41;;;;;;;12.13;3.15;;;;;;;5.70;63.87;99654.41;5054402;28;20049;-81
2023/03/27 02:04:14;;;;;;;7.38;1.60;;;;;;;5.69;63.44;99645.50;5053969;28;20604;-79
2023/03/27 02:06:44;;;;;;;10.65;1.85;;;;;;;5.45;64.19;99653.56;5036902;28;20034;-81
2023/03/27 02:09:27;;;;;;;8.02;3.38;;;;;;;5.61;64.46;99646.63;5053247;28;20040;-82
2023/03/27 02:11:57;;;;;;;10.45;2.55;;;;;;;5.61;63.96;99667.47;5052558;28;20140;-81
2023/03/27 02:14:28;;;;;;;12.27;1.92;;;;;;;5.64;64.26;99661.59;5053364;28;20390;-81
2023/03/27 02:16:58;;;;;;;8.20;2.67;;;;;;;5.71;63.95;99664.19;5053861;28;20029;-81
2023/03/27 02:19:34;;;;;;;7.28;3.67;;;;;;;5.80;64.08;99667.34;5054001;28;20205;-81
2023/03/27 02:22:01;;;;;;;5.35;1.50;;;;;;;5.82;63.67;99673.34;5052977;28;20028;-82
2023/03/27 02:24:26;;;;;;;15.35;2.63;;;;;;;5.74;63.50;99679.94;5053626;28;20047;-82
2023/03/27 02:26:58;;;;;;;9.98;2.33;;;;;;;5.79;63.70;99688.19;5054778;28;20188;-82
2023/03/27 02:29:36;;;;;;;9.52;1.65;;;;;;;5.65;64.36;99684.88;5053716;28;20047;-82
2023/03/27 02:32:36;;;;;;;9.43;2.60;;;;;;;5.52;64.07;99677.81;5052809;28;20530;-79
2023/03/27 02:35:23;;;;;;;14.38;2.53;;;;;;;5.54;64.58;99686.50;5016569;28;20095;-79
2023/03/27 02:38:07;;;;;;;12.60;2.47;;;;;;;5.47;64.39;99685.81;5051649;28;20029;-79
2023/03/27 02:40:46;;;;;;;12.68;2.63;;;;;;;5.38;64.28;99693.41;5053009;28;20032;-79
2023/03/27 02:43:23;;;;;;;23.75;2.50;;;;;;;5.38;65.13;99698.81;5053235;28;20055;-80
2023/03/27 02:46:19;;;;;;;6.13;2.22;;;;;;;5.34;65.04;99703.88;5053036;28;20044;-80
2023/03/27 02:48:50;;;;;;;8.05;2.45;;;;;;;5.48;64.84;99707.19;5050347;28;20707;-82
2023/03/27 02:51:24;;;;;;;12.32;3.53;;;;;;;5.53;64.63;99711.94;5053287;28;20024;-81
2023/03/27 02:53:58;;;;;;;13.43;3.22;;;;;;;5.37;65.09;99721.50;5053023;28;20530;-82
2023/03/27 02:56:25;;;;;;;16.83;4.80;;;;;;;5.43;65.33;99728.69;5061720;28;20045;-81
2023/03/27 02:58:59;;;;;;;6.70;1.67;;;;;;;5.27;65.67;99734.78;5054443;28;20037;-81
2023/03/27 03:01:25;;;;;;;6.40;2.07;;;;;;;5.23;65.46;99735.22;5051793;28;20051;-81
2023/03/27 03:03:57;;;;;;;6.07;2.55;;;;;;;5.30;65.47;99731.59;5052978;28;20090;-81
2023/03/27 03:06:28;;;;;;;15.00;2.28;;;;;;;5.31;65.19;99735.97;5053261;28;20025;-82
2023/03/27 03:09:06;;;;;;;4.68;1.60;;;;;;;5.36;65.23;99749.59;5051289;28;20036;-82
2023/03/27 03:11:34;;;;;;;10.20;2.95;;;;;;;5.27;65.79;99740.19;5053243;28;20044;-80
2023/03/27 03:14:00;;;;;;;11.55;3.70;;;;;;;5.22;65.89;99744.41;5052314;28;20029;-82
2023/03/27 03:16:27;;;;;;;9.55;3.40;;;;;;;5.22;65.57;99759.78;5054086;28;20032;-80
2023/03/27 03:18:52;;;;;;;6.82;2.67;;;;;;;5.12;65.81;99750.38;5052784;28;20033;-82
2023/03/27 03:21:17;;;;;;;14.75;2.75;;;;;;;5.19;65.83;99758.34;5052993;28;20036;-80
2023/03/27 03:23:43;;;;;;;7.72;2.67;;;;;;;5.21;65.87;99764.38;5051622;28;20040;-83
2023/03/27 03:26:09;;;;;;;7.15;3.47;;;;;;;5.17;65.43;99763.16;5053364;28;20048;-82
2023/03/27 03:28:34;;;;;;;7.77;2.83;;;;;;;5.12;65.48;99768.44;5053333;28;20048;-81
2023/03/27 03:31:03;;;;;;;10.07;2.33;;;;;;;5.06;65.89;99778.31;5054324;28;20258;-82
2023/03/27 03:33:29;;;;;;;11.18;1.95;;;;;;;5.15;65.73;99778.78;5052304;28;20261;-81
2023/03/27 03:35:59;;;;;;;7.82;2.22;;;;;;;5.16;65.46;99780.44;5053494;28;20036;-81
2023/03/27 03:38:26;;;;;;;11.70;2.75;;;;;;;5.09;65.73;99787.81;5052702;28;20465;-81
2023/03/27 03:40:58;;;;;;;10.70;2.67;;;;;;;5.08;65.79;99791.56;5052506;28;20029;-82
2023/03/27 03:43:25;;;;;;;8.88;2.13;;;;;;;4.94;66.27;99791.75;5054011;28;20665;-81
2023/03/27 03:45:51;;;;;;;8.55;2.72;;;;;;;4.97;66.35;99794.00;5055074;28;20070;-82
2023/03/27 03:48:17;;;;;;;15.05;2.67;;;;;;;4.87;66.37;99793.69;5056109;28;20072;-81
2023/03/27 03:50:43;;;;;;;14.10;2.75;;;;;;;4.84;66.64;99794.16;5056828;28;20029;-81
2023/03/27 03:53:09;;;;;;;6.95;3.28;;;;;;;4.77;66.42;99797.75;5057542;28;20036;-81
2023/03/27 03:55:35;;;;;;;11.00;4.30;;;;;;;4.77;66.53;99805.84;5057319;28;20029;-80
2023/03/27 03:58:00;;;;;;;18.75;6.03;;;;;;;4.84;66.70;99803.06;5057413;28;20040;-82
2023/03/27 04:00:27;;;;;;;16.25;4.93;;;;;;;4.83;66.46;99814.09;5057772;28;20048;-82
2023/03/27 04:02:53;;;;;;;11.32;4.20;;;;;;;4.82;66.77;99820.56;5057968;28;20139;-82
2023/03/27 04:05:20;;;;;;;11.18;4.72;;;;;;;4.82;66.76;99815.97;5057757;28;20202;-82
2023/03/27 04:07:45;;;;;;;21.08;4.05;;;;;;;4.76;66.75;99822.31;5056308;28;20038;-81
2023/03/27 04:10:13;;;;;;;12.48;2.53;;;;;;;4.73;66.60;99822.72;5057578;28;20434;-82
2023/03/27 04:12:38;;;;;;;6.95;2.63;;;;;;;4.79;67.44;99827.25;5057731;28;20071;-82
2023/03/27 04:15:04;;;;;;;7.78;2.90;;;;;;;4.72;67.13;99831.91;5057407;28;20029;-82
2023/03/27 04:17:32;;;;;;;8.40;2.38;;;;;;;4.72;66.70;99838.09;5057026;28;20025;-81
2023/03/27 04:19:58;;;;;;;11.50;3.03;;;;;;;4.73;66.19;99844.34;5037917;28;20036;-82
2023/03/27 04:22:25;;;;;;;14.00;2.35;;;;;;;4.71;66.60;99844.56;5055160;28;20474;-82
2023/03/27 04:24:52;;;;;;;9.52;2.85;;;;;;;4.66;66.90;99853.34;5055442;28;20032;-82
2023/03/27 04:27:20;;;;;;;15.43;3.65;;;;;;;4.65;66.78;99846.28;5039185;28;20024;-81
2023/03/27 04:29:46;;;;;;;8.88;2.40;;;;;;;4.59;66.87;99849.88;5054535;28;20067;-81
2023/03/27 04:32:17;;;;;;;13.27;2.33;;;;;;;4.66;66.75;99860.59;5055640;28;20462;-81
2023/03/27 04:34:44;;;;;;;8.10;2.28;;;;;;;4.71;67.14;99863.47;5055812;28;20089;-82
2023/03/27 04:37:09;;;;;;;6.50;1.88;;;;;;;4.71;66.64;99860.78;5056230;28;20174;-82
2023/03/27 04:39:41;;;;;;;8.67;3.03;;;;;;;4.71;66.83;99874.28;5055532;28;20453;-82
2023/03/27 04:42:06;;;;;;;5.18;2.30;;;;;;;4.53;67.17;99875.91;5057043;28;20387;-81
2023/03/27 04:44:33;;;;;;;10.88;3.65;;;;;;;4.61;67.01;99876.66;5056494;28;20131;-81
2023/03/27 04:47:00;;;;;;;4.85;2.65;;;;;;;4.69;67.05;99887.19;5055376;28;20098;-82
2023/03/27 04:49:26;;;;;;;8.40;4.13;;;;;;;4.67;67.22;99884.72;5054199;28;20037;-82
2023/03/27 04:51:51;;;;;;;18.00;3.38;;;;;;;4.63;67.57;99885.38;5056600;28;20464;-81
2023/03/27 04:54:16;;;;;;;8.05;2.58;;;;;;;4.70;67.27;99893.41;5038220;28;20504;-82
2023/03/27 04:56:42;;;;;;;8.00;3.47;;;;;;;4.73;66.98;99895.66;5053539;28;20037;-82
2023/03/27 04:59:07;;;;;;;8.40;2.80;;;;;;;4.64;67.44;99882.44;5037864;28;20357;-81
2023/03/27 05:01:33;;;;;;;11.82;3.05;;;;;;;4.66;67.40;99893.84;5055209;28;20048;-81
2023/03/27 05:04:01;;;;;;;22.98;4.72;;;;;;;4.68;67.51;99901.72;5056954;28;20409;-81
2023/03/27 05:06:26;;;;;;;9.00;2.85;;;;;;;4.76;67.45;99904.16;5056289;28;20033;-81
2023/03/27 05:08:52;;;;;;;8.88;2.03;;;;;;;4.73;67.75;99904.59;5052591;28;20040;-81
2023/03/27 05:11:17;;;;;;;6.40;2.58;;;;;;;4.77;67.94;99913.91;5055097;28;20041;-81
2023/03/27 05:13:42;;;;;;;11.93;3.58;;;;;;;4.80;67.98;99909.91;5055711;28;20036;-82
2023/03/27 05:16:08;;;;;;;9.93;2.77;;;;;;;4.84;67.02;99910.31;5056431;28;20800;-82
2023/03/27 05:18:34;;;;;;;7.57;2.78;;;;;;;4.83;67.69;99908.66;5053558;28;20273;-82
2023/03/27 05:20:59;;;;;;;14.38;5.47;;;;;;;4.86;67.82;99921.75;5056246;28;20025;-82
2023/03/27 05:23:25;;;;;;;8.43;2.40;;;;;;;4.83;67.02;99920.31;5056619;28;20025;-82
2023/03/27 05:25:51;;;;;;;7.95;2.65;;;;;;;4.87;67.61;99920.69;5056027;28;20361;-82
2023/03/27 05:28:16;;;;;;;12.25;3.38;;;;;;;4.89;67.60;99929.38;5054352;28;20032;-82
2023/03/27 05:30:42;;;;;;;6.03;2.90;;;;;;;4.93;67.14;99927.06;5055794;28;20068;-81
2023/03/27 05:33:07;;;;;;;7.30;2.25;;;;;;;4.84;67.21;99937.34;5055341;28;20036;-82
2023/03/27 05:35:33;;;;;;;9.25;2.38;;;;;;;4.92;67.15;99937.06;5056553;28;20033;-82
2023/03/27 05:37:59;;;;;;;11.88;2.83;;;;;;;4.95;67.75;99947.41;5057075;28;20044;-82
2023/03/27 05:40:25;;;;;;;9.85;2.05;;;;;;;4.94;67.60;99951.19;5054584;28;20036;-82
2023/03/27 05:42:52;;;;;;;5.45;2.13;;;;;;;5.05;67.41;99948.75;5055919;28;20097;-82
2023/03/27 05:45:18;;;;;;;8.55;2.55;;;;;;;5.01;67.45;99954.63;5053447;28;20033;-82
2023/03/27 05:47:50;;;;;;;7.75;1.98;;;;;;;5.21;67.19;99959.00;5054005;28;20033;-82
2023/03/27 05:50:18;;;;;;;13.82;3.28;;;;;;;5.06;67.16;99953.13;5053887;28;20040;-82
2023/03/27 05:52:44;;;;;;;7.95;3.20;;;;;;;4.94;67.56;99961.97;5055031;28;20394;-82
2023/03/27 05:55:10;;;;;;;8.70;3.28;;;;;;;5.14;67.63;99969.06;5053986;28;20039;-82
2023/03/27 05:57:37;;;;;;;8.23;2.00;;;;;;;5.09;67.32;99971.59;5053448;28;20498;-81
2023/03/27 06:00:12;;;;;;;13.00;3.15;;;;;;;4.84;67.82;99975.16;5050935;28;20040;-82
2023/03/27 06:02:43;;;;;;;6.70;2.25;;;;;;;4.93;68.28;99973.00;5037701;28;20032;-82
2023/03/27 06:05:12;;;;;;;6.53;1.98;;;;;;;5.08;68.29;99984.31;5055335;28;20264;-82
2023/03/27 06:07:38;;;;;;;10.38;2.95;;;;;;;5.25;67.44;99981.84;5055432;28;20031;-82
2023/03/27 06:10:06;;;;;;;10.30;2.35;;;;;;;5.34;67.06;99981.53;5056040;28;20037;-83
2023/03/27 06:12:32;;;;;;;8.90;2.90;;;;;;;5.28;66.87;99990.53;5053996;28;20048;-83
2023/03/27 06:14:57;;;;;;;8.18;1.85;;;;;;;5.25;67.01;99992.66;5051903;28;20041;-82
2023/03/27 06:17:22;;;;;;;7.37;2.20;;;;;;;5.09;67.70;99987.81;5037230;28;20064;-81
2023/03/27 06:19:48;;;;;;;6.33;1.60;;;;;;;5.25;67.45;99998.06;5055622;28;20274;-82
2023/03/27 06:22:13;;;;;;;9.35;3.00;;;;;;;4.98;68.60;99990.19;5053988;28;20331;-82
2023/03/27 06:24:38;;;;;;;5.17;2.07;;;;;;;5.23;67.62;99989.34;5052965;28;20487;-82
2023/03/27 06:27:04;;;;;;;9.68;2.05;;;;;;;5.25;67.66;99998.06;5053914;28;20250;-82
2023/03/27 06:29:29;;;;;;;5.15;2.33;;;;;;;5.28;67.21;100001.38;5052831;28;20157;-82
2023/03/27 06:31:57;;;;;;;17.05;2.30;;;;;;;5.28;67.34;100004.06;5053175;28;20037;-81
2023/03/27 06:34:23;;;;;;;15.63;3.95;;;;;;;5.19;68.02;100006.22;5053877;28;20040;-82
2023/03/27 06:36:48;;;;;;;12.32;2.00;;;;;;;5.47;67.28;100015.75;5054240;28;20025;-81
2023/03/27 06:39:14;;;;;;;7.45;2.70;;;;;;;5.45;67.25;100024.06;5054548;28;20036;-81
2023/03/27 06:41:40;;;;;;;9.52;1.83;;;;;;;5.46;67.31;100019.47;5049349;28;20029;-81
2023/03/27 06:44:06;;;;;;;10.70;2.10;;;;;;;5.44;67.35;100022.41;5052600;28;20359;-81
2023/03/27 06:46:31;;;;;;;7.95;2.33;;;;;;;5.49;66.97;100025.25;5050823;28;20051;-82
2023/03/27 06:48:57;;;;;;;8.35;2.22;;;;;;;5.41;67.27;100027.44;5049895;28;20041;-82
2023/03/27 06:51:22;;;;;;;17.52;5.47;;;;;;;5.56;66.58;100027.06;5052674;28;20405;-80
2023/03/27 06:53:48;;;;;;;6.63;2.40;;;;;;;5.51;67.31;100035.88;5050958;28;20032;-81
2023/03/27 06:56:13;;;;;;;5.38;2.38;;;;;;;5.55;66.78;100033.53;5049706;28;20041;-82
2023/03/27 06:58:39;;;;;;;7.00;2.45;;;;;;;5.58;66.93;100038.50;5052808;28;20406;-83
2023/03/27 07:01:04;;;;;;;7.55;2.47;;;;;;;5.44;66.97;100040.50;5053235;28;20147;-79
2023/03/27 07:03:30;;;;;;;4.55;1.55;;;;;;;5.28;67.27;100044.63;5053444;28;20036;-79
2023/03/27 07:05:55;;;;;;;4.10;1.30;;;;;;;5.34;68.50;100049.13;5052666;28;20029;-79
2023/03/27 07:08:20;;;;;;;4.18;1.85;;;;;;;5.34;66.74;100049.13;5051922;28;20577;-78
2023/03/27 07:10:46;;;;;;;6.18;2.65;;;;;;;5.43;66.71;100047.00;5053251;28;20124;-78
2023/03/27 07:13:11;;;;;;;10.48;3.55;;;;;;;5.60;67.34;100052.63;5051646;28;20206;-78
2023/03/27 07:15:37;;;;;;;4.45;2.20;;;;;;;5.65;67.10;100055.50;5051885;28;20077;-78
2023/03/27 07:18:05;;;;;;;7.68;2.85;;;;;;;5.76;66.54;100061.19;5052359;28;20029;-80
2023/03/27 07:20:31;;;;;;;5.10;1.85;;;;;;;5.70;66.88;100062.91;5051560;28;20033;-82
2023/03/27 07:22:58;;;;;;;5.30;1.50;;;;;;;5.62;65.95;100055.94;5051816;28;20118;-78
2023/03/27 07:25:25;;;;;;;12.25;2.75;;;;;;;5.90;65.52;100064.59;5050587;28;20036;-77
2023/03/27 07:27:51;;;;;;;4.47;1.77;;;;;;;5.92;66.10;100073.31;5052371;28;20085;-81
2023/03/27 07:30:16;;;;;;;7.10;2.80;;;;;;;6.15;65.24;100069.94;5052541;28;20228;-80
2023/03/27 07:32:43;;;;;;;11.70;1.63;;;;;;;6.14;64.67;100079.09;5052447;28;20268;-81
2023/03/27 07:35:09;;;;;;;8.30;3.00;;;;;;;6.01;65.07;100084.66;5053317;28;20513;-81
2023/03/27 07:37:36;;;;;;;4.22;1.40;;;;;;;6.18;65.79;100085.72;5050771;28;20072;-80
2023/03/27 07:40:03;;;;;;;3.15;1.83;;;;;;;5.93;65.06;100078.50;5052787;28;20032;-84
2023/03/27 07:42:28;;;;;;;7.88;1.83;;;;;;;6.34;64.79;100091.56;5053393;28;20371;-83
2023/03/27 07:44:54;;;;;;;19.60;2.07;;;;;;;6.41;64.44;100095.00;5051088;28;20033;-83
2023/03/27 07:47:19;;;;;;;4.07;1.20;;;;;;;6.52;63.80;100092.59;5053471;28;20262;-84
2023/03/27 07:49:45;;;;;;;6.25;2.70;;;;;;;6.62;63.34;100095.56;5051994;28;20032;-82
2023/03/27 07:52:10;;;;;;;4.70;1.38;;;;;;;6.22;63.59;100093.38;5051810;28;20581;-84
2023/03/27 07:54:35;;;;;;;3.83;1.08;;;;;;;6.32;63.69;100096.38;5050525;28;20044;-84
2023/03/27 07:57:01;;;;;;;4.13;1.17;;;;;;;6.52;62.76;100111.53;5049493;28;20504;-83
2023/03/27 07:59:28;;;;;;;5.97;1.25;;;;;;;6.27;61.87;100104.34;5052167;28;20749;-84
2023/03/27 08:01:53;;;;;;;4.53;1.08;;;;;;;5.84;62.56;100105.03;5055007;28;20120;-85
2023/03/27 08:04:19;;;;;;;6.45;2.05;;;;;;;6.16;62.81;100106.75;5054010;28;20124;-85
2023/03/27 08:06:44;;;;;;;5.32;0.80;;;;;;;6.13;63.30;100112.66;5053950;28;20371;-84
2023/03/27 08:09:10;;;;;;;7.13;2.05;;;;;;;6.45;62.73;100116.25;5054107;28;20140;-86
2023/03/27 08:11:40;;;;;;;5.60;1.48;;;;;;;6.57;61.83;100114.38;5054639;28;20166;-84
2023/03/27 08:14:08;;;;;;;5.28;1.30;;;;;;;6.57;62.19;100108.97;5053032;28;20102;-80
2023/03/27 08:16:35;;;;;;;9.55;1.20;;;;;;;6.30;60.32;100115.56;5052595;28;20043;-80
2023/03/27 08:19:02;;;;;;;5.40;2.13;;;;;;;6.53;61.04;100114.03;5052357;28;20041;-81
2023/03/27 08:21:30;;;;;;;3.97;1.73;;;;;;;6.33;62.00;100114.28;5052051;28;20037;-82
2023/03/27 08:23:57;;;;;;;2.20;0.80;;;;;;;6.66;60.65;100125.72;5051607;28;20032;-81
2023/03/27 08:26:22;;;;;;;10.45;4.22;;;;;;;6.76;60.75;100122.47;5051306;28;20029;-82
2023/03/27 08:28:47;;;;;;;2.47;0.88;;;;;;;7.11;60.21;100124.47;5051971;28;20028;-79
2023/03/27 08:31:14;;;;;;;3.57;1.10;;;;;;;7.19;60.55;100119.75;5054422;28;20366;-80
2023/03/27 08:33:40;;;;;;;2.90;1.10;;;;;;;7.00;60.83;100127.94;5054166;28;20303;-79
2023/03/27 08:36:07;;;;;;;2.90;0.60;;;;;;;6.85;59.93;100131.09;5038470;28;20032;-79
2023/03/27 08:38:32;;;;;;;5.05;1.35;;;;;;;6.60;61.26;100130.19;5055608;28;20037;-82
2023/03/27 08:41:00;;;;;;;4.40;0.75;;;;;;;6.85;61.05;100142.78;5056487;28;20036;-86
2023/03/27 08:43:29;;;;;;;2.38;0.80;;;;;;;6.67;60.53;100143.66;5056742;28;20470;-86
2023/03/27 08:46:06;;;;;;;4.55;1.90;;;;;;;6.97;60.66;100144.69;5055725;28;20048;-81
2023/03/27 08:49:10;;;;;;;4.13;1.77;;;;;;;7.35;58.24;100151.63;5053850;28;20075;-86
2023/03/27 08:51:43;;;;;;;5.32;1.00;;;;;;;7.26;59.15;100152.19;5056503;28;20116;-86
2023/03/27 08:54:22;;;;;;;3.67;0.90;;;;;;;7.27;59.33;100145.69;5056701;28;20532;-86
2023/03/27 08:56:48;;;;;;;3.97;1.63;;;;;;;7.15;58.01;100153.81;5052559;28;20509;-81
2023/03/27 08:59:17;;;;;;;5.88;1.38;;;;;;;6.92;58.49;100164.34;5057834;28;20040;-81
2023/03/27 09:01:49;;;;;;;7.82;2.33;;;;;;;6.67;59.12;100162.63;5056612;28;20048;-82
2023/03/27 09:04:38;;;;;;;6.57;2.03;;;;;;;6.76;59.11;100166.66;5056033;28;20041;-82
2023/03/27 09:07:08;;;;;;;5.43;1.48;;;;;;;6.84;59.89;100162.81;5056966;28;20035;-83
2023/03/27 09:10:11;;;;;;;3.72;1.48;;;;;;;6.77;57.74;100168.31;5039719;28;20040;-82
2023/03/27 09:12:56;;;;;;;3.95;1.63;;;;;;;6.67;59.22;100178.06;5055114;28;20052;-82
2023/03/27 09:15:25;;;;;;;5.18;1.98;;;;;;;6.96;58.90;100176.41;5055544;28;20033;-81
2023/03/27 09:18:18;;;;;;;6.28;1.70;;;;;;;7.08;58.32;100173.72;5053280;28;20017;-83
2023/03/27 09:21:00;;;;;;;8.95;2.00;;;;;;;7.24;59.02;100172.22;5043150;28;20037;-83
2023/03/27 09:23:45;;;;;;;13.35;3.83;;;;;;;6.84;58.63;100173.63;5054502;28;20040;-83
2023/03/27 09:26:34;;;;;;;3.33;1.08;;;;;;;7.12;56.85;100183.03;5056924;28;20020;-86
2023/03/27 09:29:06;;;;;;;10.30;1.83;;;;;;;7.38;55.82;100176.63;5055635;28;20087;-83
2023/03/27 09:31:34;;;;;;;4.10;1.30;;;;;;;7.59;55.85;100177.94;5057279;28;20029;-86
2023/03/27 09:34:11;;;;;;;5.90;1.73;;;;;;;7.34;56.45;100174.38;5054589;28;20379;-88
2023/03/27 09:36:37;;;;;;;2.70;0.90;;;;;;;7.66;56.25;100178.66;5056057;28;20063;-82
2023/03/27 09:39:11;;;;;;;4.80;1.65;;;;;;;7.53;54.85;100185.13;5055821;28;20028;-86
2023/03/27 09:41:45;;;;;;;1.52;0.75;;;;;;;7.22;54.12;100192.53;5038270;28;20219;-87
2023/03/27 09:44:24;;;;;;;3.38;0.68;;;;;;;7.16;55.10;100174.47;5055687;28;20046;-82
2023/03/27 09:46:55;;;;;;;3.40;1.05;;;;;;;7.62;54.38;100171.22;5056152;28;20137;-82
2023/03/27 09:49:20;;;;;;;7.00;1.27;;;;;;;7.93;54.25;100171.94;5054569;28;20028;-85
2023/03/27 09:51:49;;;;;;;3.90;1.60;;;;;;;8.24;53.29;100161.75;5055271;28;20043;-82
2023/03/27 09:54:17;;;;;;;2.90;0.80;;;;;;;8.28;52.34;100164.78;5056667;28;20303;-82
2023/03/27 09:56:45;;;;;;;4.38;1.45;;;;;;;8.39;52.02;100168.56;5051930;28;20119;-82
2023/03/27 09:59:40;;;;;;;8.68;1.00;;;;;;;8.20;51.20;100176.84;5051475;28;20661;-82
2023/03/27 10:02:20;;;;;;;5.90;0.88;;;;;;;7.45;52.56;100193.63;5052094;28;20072;-84
2023/03/27 10:05:16;;;;;;;3.90;0.80;;;;;;;7.61;53.17;100196.72;5054940;28;20032;-85
2023/03/27 10:07:42;;;;;;;3.55;2.38;;;;;;;7.40;52.60;100191.63;5054200;28;20030;-83
2023/03/27 10:10:14;;;;;;;4.65;1.30;;;;;;;7.69;52.67;100178.19;5054078;28;20032;-84
2023/03/27 10:12:41;;;;;;;3.92;1.35;;;;;;;7.88;52.79;100180.78;5054366;28;20033;-81
2023/03/27 10:15:38;;;;;;;4.25;1.45;;;;;;;7.86;51.67;100187.50;5054425;28;20029;-83
2023/03/27 10:18:07;;;;;;;2.30;0.77;;;;;;;7.83;51.47;100196.97;5051871;28;20029;-83
2023/03/27 10:20:33;;;;;;;5.20;2.17;;;;;;;7.75;53.03;100187.28;5055167;28;20432;-82
2023/03/27 10:23:37;;;;;;;2.38;0.70;;;;;;;7.71;52.38;100196.94;5038958;28;20029;-84
2023/03/27 10:26:07;;;;;;;4.30;0.93;;;;;;;7.51;52.68;100205.41;5028230;28;20072;-84
2023/03/27 10:28:35;;;;;;;3.60;1.17;;;;;;;7.76;52.47;100209.81;5054747;28;20170;-85
2023/03/27 10:31:23;;;;;;;6.22;0.98;;;;;;;7.67;53.33;100203.91;5055980;28;20029;-86
2023/03/27 10:33:48;;;;;;;4.00;1.13;;;;;;;8.08;52.62;100212.19;5056905;28;20032;-85
2023/03/27 10:36:14;;;;;;;5.68;1.08;;;;;;;8.38;52.04;100221.25;5056133;28;20513;-87
2023/03/27 10:38:40;;;;;;;7.72;1.63;;;;;;;8.15;52.29;100212.06;5057214;28;20470;-84
2023/03/27 10:41:16;;;;;;;3.05;1.15;;;;;;;8.15;51.67;100215.63;5055281;28;20032;-85
2023/03/27 10:43:45;;;;;;;9.18;1.33;;;;;;;8.17;51.62;100218.94;5054412;28;20032;-85
2023/03/27 10:46:14;;;;;;;2.47;0.80;;;;;;;8.08;50.78;100217.63;5054334;28;20025;-85
2023/03/27 10:48:59;;;;;;;4.15;1.00;;;;;;;8.12;50.76;100218.78;5052498;28;20090;-84
2023/03/27 10:52:02;;;;;;;7.50;1.75;;;;;;;8.08;51.15;100222.22;5054982;28;20040;-83
2023/03/27 10:54:39;;;;;;;6.78;1.65;;;;;;;7.90;51.78;100213.13;5054597;28;20024;-85
2023/03/27 10:57:25;;;;;;;3.00;0.85;;;;;;;8.09;51.69;100213.00;5056079;28;20033;-81
2023/03/27 10:59:59;;;;;;;9.27;1.17;;;;;;;8.36;49.90;100223.38;5055904;28;20032;-87
2023/03/27 11:02:31;;;;;;;5.55;1.27;;;;;;;8.36;49.55;100215.25;5056170;28;20035;-86
2023/03/27 11:05:20;;;;;;;6.30;1.13;;;;;;;8.39;48.32;100222.91;5054715;28;20043;-87
2023/03/27 11:07:51;;;;;;;3.65;0.80;;;;;;;8.37;47.49;100200.56;5040985;28;20037;-83
2023/03/27 11:10:23;;;;;;;4.18;0.52;;;;;;;8.41;48.05;100218.88;5054215;28;20024;-83
2023/03/27 11:13:00;;;;;;;2.45;0.75;;;;;;;8.52;49.57;100222.63;5053576;28;20033;-85
2023/03/27 11:15:32;;;;;;;2.58;0.90;;;;;;;8.72;48.62;100216.00;5056100;28;20029;-84
2023/03/27 11:18:05;;;;;;;6.47;2.13;;;;;;;8.82;47.82;100226.25;5055191;28;20033;-83
2023/03/27 11:21:11;;;;;;;2.58;1.02;;;;;;;8.99;47.59;100215.44;5054915;28;20064;-85
2023/03/27 11:23:40;;;;;;;2.35;0.80;;;;;;;9.50;48.39;100223.94;5036165;28;20051;-85
2023/03/27 11:26:07;;;;;;;3.00;1.40;;;;;;;9.31;45.42;100224.16;5055051;28;20040;-81
2023/03/27 11:28:41;;;;;;;9.10;1.40;;;;;;;9.42;47.14;100204.22;5053820;28;20123;-84
2023/03/27 11:31:21;;;;;;;1.30;0.60;;;;;;;8.89;45.50;100220.66;5055829;28;20052;-83
2023/03/27 11:34:19;;;;;;;2.92;0.85;;;;;;;8.88;46.13;100229.91;5054307;28;20421;-83
2023/03/27 11:36:53;;;;;;;1.80;0.57;;;;;;;8.86;46.31;100229.31;5046022;28;20044;-83
2023/03/27 11:39:23;;;;;;;1.10;0.55;;;;;;;8.86;47.68;100226.59;5053318;28;20413;-83
2023/03/27 11:41:53;;;;;;;2.05;0.50;;;;;;;8.91;47.30;100240.28;5053367;28;20044;-84
2023/03/27 11:44:19;;;;;;;2.83;1.02;;;;;;;9.10;47.66;100243.66;5053967;28;20112;-82
2023/03/27 11:47:11;;;;;;;2.35;0.70;;;;;;;9.58;46.90;100243.41;5037071;28;20128;-84
2023/03/27 11:49:53;;;;;;;8.82;1.20;;;;;;;9.48;47.59;100247.84;5053803;28;20089;-84
2023/03/27 11:53:06;;;;;;;2.63;0.95;;;;;;;9.11;49.77;100267.06;5053469;28;20485;-84
2023/03/27 11:56:08;;;;;;;2.47;1.08;;;;;;;9.68;50.24;100269.97;5043013;28;20079;-84